ID Time Temp Humidity Light PM2.5 PM10 Voltage Extra Firmware Position Fcnt TTN version Gateways Distance RSSI LSNR Radiosettings
2021-07-28 15:52:47 22.625°C 28.3125% 3.35V 8355,12,12674,162,11088,146,11926,148,8582,12,8524,12 v255 52.1338 / 6.71252 1807 ttn.v2 - -120 -13.2 867.7MHz, SF9BW125, 4/5CR
2021-07-27 16:20:20 25.3125°C 30.3125% 3.36V 8326,12,12647,173,11060,142,11884,149,8553,12,8494,12 v255 52.1338 / 6.71252 1763 ttn.v2 - -119 -13.5 867.3MHz, SF9BW125, 4/5CR
2021-07-25 19:22:58 27.8125°C 58.5% 3.35V 8361,12,12683,165,11100,135,11963,148,8578,12,8522,12 v255 52.1338 / 6.71255 1679 ttn.v2 - -120 -12.5 867.9MHz, SF9BW125, 4/5CR
2021-07-25 17:14:17 26.875°C 62.25% 3.35V 8312,12,12635,175,11027,137,11897,147,8533,12,8472,12 v255 52.1338 / 6.71255 1675 ttn.v2 - -117 -14.5 867.5MHz, SF9BW125, 4/5CR
2021-07-25 00:39:13 16.5°C 32.375% 3.36V 8419,12,12748,143,11367,133,12291,147,8631,12,8568,12 v255 52.1338 / 6.71255 1644 ttn.v2 - -120 -17.2 868.1MHz, SF12BW125, 4/5CR
2021-07-24 15:00:11 26.625°C 33.4375% 3.35V 8337,12,12650,170,11092,142,11921,146,8550,12,8489,12 v255 52.1338 / 6.71255 1626 ttn.v2 - -121 -13.8 868.1MHz, SF9BW125, 4/5CR
2021-07-23 09:02:13 14.375°C 32.125% 3.36V 8421,12,12742,143,11224,124,12071,148,8634,12,8577,12 v255 52.1338 / 6.71255 1570 ttn.v2 - -120 -13.8 868.5MHz, SF9BW125, 4/5CR
2021-07-23 05:49:52 7.9375°C 75.6875% 3.36V 8468,12,12812,121,11276,127,12121,148,8685,12,8626,12 v255 52.1338 / 6.71255 1564 ttn.v2 - -119 -13.2 868.5MHz, SF9BW125, 4/5CR
2021-07-23 03:41:40 8.5625°C 31.5625% 3.36V 8467,12,12815,123,11266,131,12115,148,8682,12,8632,12 v255 52.1338 / 6.71255 1560 ttn.v2 - -119 -13.5 868.1MHz, SF9BW125, 4/5CR
2021-07-22 21:17:42 16.25°C 106% 3.36V 8411,12,12753,140,11191,138,12049,148,8634,12,8577,12 v255 52.1338 / 6.71255 1548 ttn.v2 - -121 -14.8 868.1MHz, SF12BW125, 4/5CR
2021-07-22 19:08:29 23.8125°C 60.125% 3.35V 8351,12,12663,163,11097,126,11928,148,8579,12,8520,12 v255 52.1338 / 6.71252 1544 ttn.v2 - -120 -14 868.3MHz, SF9BW125, 4/5CR
2021-07-22 15:55:36 24.4375°C 70.9375% 3.35V 8310,12,12627,175,11037,127,11863,147,8527,12,8475,12 v255 52.1338 / 6.71252 1538 ttn.v2 - -119 -12.5 868.3MHz, SF9BW125, 4/5CR
2021-07-22 12:10:33 22.5625°C 55.3125% 3.35V 8320,12,12645,170,11064,118,11890,147,8551,12,8488,12 v255 52.1338 / 6.71252 1531 ttn.v2 - -121 -13.8 867.1MHz, SF9BW125, 4/5CR
2021-07-21 23:52:31 15.5°C 32.25% 3.36V 8423,12,12758,139,11237,133,12090,148,8634,12,8583,12 v255 52.1338 / 6.71252 1508 ttn.v2 - -118 -14.5 868.3MHz, SF9BW125, 4/5CR
2021-07-21 18:31:21 23.9375°C 83.1875% 3.36V 8350,12,12667,163,11102,139,11943,147,8565,12,8509,12 v255 52.1338 / 6.71252 1498 ttn.v2 - -120 -13.2 868.5MHz, SF9BW125, 4/5CR
2021-07-21 17:27:03 24.5°C 67.25% 3.36V 8336,12,12655,167,11106,115,11926,147,8559,12,8499,12 v255 52.1338 / 6.71252 1496 ttn.v2 - -120 -13.2 868.3MHz, SF9BW125, 4/5CR
2021-07-21 16:22:44 27.1875°C 51.1875% 3.35V 8298,12,12632,181,10996,142,11838,146,8522,12,8463,12 v255 52.1338 / 6.71252 1494 ttn.v2 - -120 -12.8 868.1MHz, SF9BW125, 4/5CR
2021-07-21 14:46:14 27°C 51.9375% 3.36V 8297,12,12608,180,10996,141,11835,147,8517,12,8459,12 v255 52.1338 / 6.71252 1491 ttn.v2 - -119 -13.8 867.1MHz, SF9BW125, 4/5CR
2021-07-21 05:40:28 9.0625°C 48.625% 3.36V 8462,12,12812,124,11261,127,12113,148,8677,12,8626,12 v255 52.1338 / 6.71252 1474 ttn.v2 - -118 -13.5 868.5MHz, SF9BW125, 4/5CR
2021-07-20 21:07:24 16.625°C 32.375% 3.36V 8411,12,12738,144,11201,131,12055,147,8635,12,8564,12 v255 52.1338 / 6.71252 1458 ttn.v2 - -119 -13.2 868.1MHz, SF9BW125, 4/5CR
2021-07-20 17:55:24 23.8125°C 59.0625% 3.36V 8336,12,12674,167,11088,125,11917,147,8561,12,8504,12 v255 52.1338 / 6.71252 1452 ttn.v2 - -120 -12.8 868.1MHz, SF12BW125, 4/5CR
2021-07-18 14:33:24 28.5625°C 61.4375% 3.35V 8264,12,12553,191,10955,12,11796,148,8483,12,8420,12 v255 52.1339 / 6.71252 1356 ttn.v2 - -121 -15.2 868.1MHz, SF12BW125, 4/5CR
2021-07-12 04:24:56 16.1875°C 32.375% 3.35V 8402,12,12737,143,11219,151,12061,148,8617,12,8561,12 v255 52.1338 / 6.71259 1068 ttn.v2 - -120 -14.2 868.1MHz, SF12BW125, 4/5CR
15.783km -120 -17.8 868.1MHz, SF12BW125, 4/5CR
2021-07-11 21:58:51 18.625°C 32.625% 3.35V 8378,12,12701,150,11178,123,12022,148,8601,12,8541,12 v255 52.1338 / 6.71255 1056 ttn.v2 - -120 -14.5 868.1MHz, SF9BW125, 4/5CR
2021-07-10 23:29:50 14.75°C 32.1875% 3.36V 8418,12,12750,139,11203,152,12033,147,8634,12,8585,12 v255 52.1338 / 6.71255 1014 ttn.v2 - -121 -14.2 868.1MHz, SF9BW125, 4/5CR
2021-07-10 20:17:12 21.3125°C 90.4375% 3.36V 8364,12,12677,156,11093,121,11927,147,8579,12,8522,12 v255 52.1338 / 6.71255 1008 ttn.v2 - -119 -14.2 868.1MHz, SF9BW125, 4/5CR
2021-07-10 18:08:37 24.4375°C 64.75% 3.36V 8321,12,12629,170,11021,145,11827,146,8532,12,8483,12 v255 52.1338 / 6.71255 1004 ttn.v2 - -119 -14.2 868.3MHz, SF9BW125, 4/5CR
2021-07-10 17:36:27 28.625°C 54.6875% 3.36V 8278,12,12565,189,10922,12,11755,146,8486,12,8424,12 v255 52.1338 / 6.71255 1003 ttn.v2 - -118 -13.2 867.3MHz, SF9BW125, 4/5CR
2021-07-10 02:05:04 14°C 61.3125% 3.36V 8427,12,12769,136,11273,134,12124,147,8646,12,8587,12 v255 52.1338 / 6.71255 974 ttn.v2 - -120 -13.2 868.3MHz, SF9BW125, 4/5CR
2021-07-10 01:32:59 13.25°C 32.0625% 3.36V 8438,12,12769,133,11275,136,12131,147,8645,12,8586,12 v255 52.1338 / 6.71255 973 ttn.v2 - -118 -13.8 867.3MHz, SF9BW125, 4/5CR
2021-07-10 01:01:42 13.625°C 32.0625% 3.36V 8435,12,12763,135,11272,135,12122,147,8637,12,8577,12 v255 52.1338 / 6.71255 972 ttn.v2 - -121 -12.5 868.1MHz, SF12BW125, 4/5CR
2021-07-09 23:56:47 14.75°C 32.1875% 3.36V 8422,12,12763,138,11279,135,12138,147,8634,12,8580,12 v255 52.1338 / 6.71259 970 ttn.v2 - -119 -14.2 868.5MHz, SF9BW125, 4/5CR
2021-07-09 23:24:41 14.8125°C 32.1875% 3.36V 8415,12,12751,139,11262,136,12121,147,8625,12,8567,12 v255 52.1338 / 6.71259 969 ttn.v2 - -119 -13.8 867.9MHz, SF9BW125, 4/5CR
2021-07-09 22:20:30 16.8125°C 32.375% 3.36V 8401,12,12724,146,11242,149,12106,147,8608,12,8552,12 v255 52.1338 / 6.71259 967 ttn.v2 - -119 -13.2 867.7MHz, SF9BW125, 4/5CR
2021-07-08 15:17:43 23.5°C 99.0625% 3.36V 8321,12,12643,170,11016,122,11811,144,8541,12,8480,12 v255 52.1338 / 6.71259 909 ttn.v2 - -119 -12.2 867.9MHz, SF9BW125, 4/5CR
2021-07-08 14:45:33 25.9375°C 61.875% 3.36V 8287,12,12608,177,10990,125,11774,144,8511,12,8455,12 v255 52.1338 / 6.71259 908 ttn.v2 - -118 -13.8 868.3MHz, SF9BW125, 4/5CR
2021-07-08 14:13:23 26.6875°C 62.375% 3.35V 8279,12,12588,183,10962,135,11755,144,8495,12,8440,12 v255 52.1338 / 6.71259 907 ttn.v2 - -118 -13 867.7MHz, SF9BW125, 4/5CR
2021-07-08 13:41:12 26.3125°C 59.5% 3.36V 8279,12,12599,181,10964,134,11760,144,8501,12,8449,12 v255 52.1338 / 6.71259 906 ttn.v2 - -121 -12.5 868.1MHz, SF9BW125, 4/5CR
2021-07-08 13:09:02 26.625°C 60.8125% 3.36V 8273,12,12581,182,10930,128,11749,144,8497,12,8443,12 v255 52.1338 / 6.71259 905 ttn.v2 - -119 -12 867.5MHz, SF9BW125, 4/5CR
2021-07-08 12:36:51 27.125°C 56.375% 3.36V 8260,12,12554,190,10897,12,11713,144,8475,12,8413,12 v255 52.1338 / 6.71259 904 ttn.v2 - -117 -13.5 868.5MHz, SF9BW125, 4/5CR
2021-07-08 12:04:41 26.4375°C 56.375% 3.36V 8259,12,12559,190,10900,12,11713,144,8470,12,8411,12 v255 52.1338 / 6.71259 903 ttn.v2 - -119 -14 867.3MHz, SF9BW125, 4/5CR
2021-07-08 11:32:30 25.875°C 6.75% 3.36V 8291,12,12588,183,10920,12,11746,144,8491,12,8436,12 v255 52.1338 / 6.71259 902 ttn.v2 - -119 -12.5 868.3MHz, SF9BW125, 4/5CR
2021-07-08 11:00:21 25.1875°C 62.25% 3.36V 8303,12,12592,182,10972,136,11759,145,8501,12,8445,12 v255 52.1338 / 6.71259 901 ttn.v2 - -118 -11.8 867.1MHz, SF9BW125, 4/5CR
2021-07-08 05:39:15 11.0625°C 88.1875% 3.36V 8468,12,12810,125,11251,135,12074,145,8682,12,8619,12 v255 52.1338 / 6.71259 891 ttn.v2 - -118 -13.8 867.1MHz, SF9BW125, 4/5CR
2021-07-08 04:03:03 11.8125°C 71.75% 3.36V 8461,12,12802,128,11242,143,12070,145,8664,12,8614,12 v255 52.1338 / 6.71259 888 ttn.v2 - -120 -13 868.1MHz, SF9BW125, 4/5CR
2021-07-08 01:22:41 13.3125°C 38.9375% 3.36V 8448,12,12794,132,11210,147,12027,145,8661,12,8602,12 v255 52.1338 / 6.71259 883 ttn.v2 - -120 -13.8 867.3MHz, SF9BW125, 4/5CR
2021-07-08 00:18:31 14.0625°C 32.125% 3.36V 8438,12,12786,134,11213,147,12032,145,8654,12,8595,12 v255 52.1338 / 6.71259 881 ttn.v2 - -120 -13 867.1MHz, SF9BW125, 4/5CR
2021-07-07 23:46:26 14.625°C 32.1875% 3.36V 8427,12,12764,136,11201,148,12025,145,8646,12,8587,12 v255 52.1338 / 6.71259 880 ttn.v2 - -118 -13.8 868.5MHz, SF9BW125, 4/5CR
2021-07-07 23:14:20 15.5625°C 32.25% 3.36V 8418,12,12745,139,11184,148,11996,145,8629,12,8571,12 v255 52.1338 / 6.71259 879 ttn.v2 - -119 -12.2 867.9MHz, SF9BW125, 4/5CR
2021-07-07 22:10:09 17.25°C 32.4375% 3.36V 8400,12,12727,144,11143,149,11978,145,8624,12,8566,12 v255 52.1338 / 6.71259 877 ttn.v2 - -120 -12.5 867.7MHz, SF9BW125, 4/5CR
2021-07-07 21:38:48 18°C 32.5% 3.36V 8409,12,12738,145,11128,150,11960,144,8606,12,8551,12 v255 52.1338 / 6.71259 876 ttn.v2 - -120 -14.2 868.1MHz, SF12BW125, 4/5CR
15.783km -120 -15.2 868.1MHz, SF12BW125, 4/5CR
2021-07-07 20:01:42 22.6875°C 99.375% 3.36V 8374,12,12687,157,11091,119,11876,144,8583,12,8526,12 v255 52.1338 / 6.71252 873 ttn.v2 - -120 -12.2 867.3MHz, SF9BW125, 4/5CR
2021-07-07 18:57:24 24.3125°C 56.125% 3.36V 8340,12,12651,165,11030,138,11825,144,8556,12,8504,12 v255 52.1338 / 6.71252 871 ttn.v2 - -119 -13 867.1MHz, SF9BW125, 4/5CR
2021-07-07 18:25:14 25.875°C 54.375% 3.36V 8310,12,12643,173,11012,129,11796,144,8540,12,8482,12 v255 52.1338 / 6.71252 870 ttn.v2 - -120 -13.2 868.1MHz, SF9BW125, 4/5CR
2021-07-07 17:53:04 25.1875°C 54.25% 3.36V 8287,12,12616,177,10944,127,11766,144,8507,12,8453,12 v255 52.1338 / 6.71252 869 ttn.v2 - -120 -13.8 867.9MHz, SF9BW125, 4/5CR
2021-07-07 16:48:45 24.25°C 59.5% 3.36V 8288,12,12603,176,10978,146,11764,144,8512,12,8457,12 v255 52.1338 / 6.71252 867 ttn.v2 - -119 -13.8 867.7MHz, SF9BW125, 4/5CR
2021-07-07 15:44:25 24.5°C 63.5% 3.36V 8313,12,12629,174,10996,136,11773,144,8530,12,8468,12 v255 52.1338 / 6.71252 865 ttn.v2 - -120 -12.5 867.5MHz, SF9BW125, 4/5CR
2021-07-07 14:40:06 24.3125°C 59.3125% 3.36V 8287,12,12608,177,10978,145,11767,144,8515,12,8459,12 v255 52.1338 / 6.71252 863 ttn.v2 - -119 -12.5 867.3MHz, SF9BW125, 4/5CR
2021-07-07 06:38:18 11.625°C 42.25% 3.36V 8458,12,12804,127,11248,125,12070,145,8670,12,8619,12 v255 52.1338 / 6.71252 848 ttn.v2 - -118 -14 868.3MHz, SF9BW125, 4/5CR
2021-07-07 05:34:09 11°C 40.3125% 3.36V 8472,12,12815,123,11258,127,12071,145,8683,12,8623,12 v255 52.1338 / 6.71252 846 ttn.v2 - -119 -13.2 868.1MHz, SF9BW125, 4/5CR
2021-07-07 05:02:05 10.375°C 2.3125% 3.36V 8480,12,12827,123,11244,127,12059,145,8683,12,8623,12 v255 52.1338 / 6.71252 845 ttn.v2 - -119 -13.5 867.5MHz, SF9BW125, 4/5CR
2021-07-07 02:53:50 10.6875°C 72% 3.36V 8476,12,12822,124,11235,140,12051,145,8676,12,8629,12 v255 52.1338 / 6.71252 841 ttn.v2 - -118 -13.5 867.1MHz, SF9BW125, 4/5CR
2021-07-07 02:21:46 10.625°C 31.75% 3.36V 8469,12,12797,125,11217,139,12033,145,8677,12,8622,12 v255 52.1338 / 6.71252 840 ttn.v2 - -120 -13 868.1MHz, SF9BW125, 4/5CR
2021-07-07 01:49:41 11.125°C 43.4375% 3.36V 8460,12,12789,125,11214,144,12026,145,8675,12,8620,12 v255 52.1338 / 6.71252 839 ttn.v2 - -120 -12.5 867.9MHz, SF9BW125, 4/5CR
2021-07-06 23:09:19 14.125°C 32.125% 3.36V 8450,12,12784,131,11194,135,12004,145,8655,12,8602,12 v255 52.1338 / 6.71252 834 ttn.v2 - -120 -12.8 868.1MHz, SF9BW125, 4/5CR
2021-07-06 22:37:13 15.125°C 32.25% 3.36V 8433,12,12773,134,11184,132,11994,145,8649,12,8593,12 v255 52.1338 / 6.71252 833 ttn.v2 - -120 -12.2 867.3MHz, SF9BW125, 4/5CR
2021-07-06 21:33:02 16.6875°C 32.375% 3.36V 8418,12,12763,139,11173,139,11981,145,8632,12,8579,12 v255 52.1338 / 6.71252 831 ttn.v2 - -121 -13.2 867.1MHz, SF9BW125, 4/5CR
2021-07-06 17:16:06 22.4375°C 62.375% 3.36V 8345,12,12643,166,11032,144,11824,145,8550,12,8494,12 v255 52.1338 / 6.71252 823 ttn.v2 - -119 -14.2 867.3MHz, SF9BW125, 4/5CR
2021-07-06 16:11:49 22.1875°C 69.9375% 3.36V 8331,12,12642,164,11044,131,11830,145,8549,12,8498,12 v255 52.1338 / 6.71252 821 ttn.v2 - -121 -14 867.1MHz, SF9BW125, 4/5CR
2021-07-06 11:54:40 20.6875°C 61.0625% 3.35V 8365,12,12682,158,11104,144,11900,145,8575,12,8517,12 v255 52.1338 / 6.71252 813 ttn.v2 - -120 -12.2 867.3MHz, SF9BW125, 4/5CR
2021-07-05 18:15:54 22.125°C 85.0625% 3.35V 8337,12,12658,169,11128,140,11914,144,8560,12,8504,12 v255 52.1338 / 6.71252 780 ttn.v2 - -120 -17.5 868.1MHz, SF12BW125, 4/5CR
2021-07-03 20:46:08 20.25°C 32.75% 3.36V 8377,12,12703,151,11133,152,11964,143,8596,12,8538,12 v255 52.1338 / 6.71255 695 ttn.v2 - -117 -13.5 867.5MHz, SF9BW125, 4/5CR
2021-07-03 19:41:52 22.3125°C 105.812% 3.36V 8364,12,12683,156,11077,134,11899,143,8580,12,8522,12 v255 52.1338 / 6.71255 693 ttn.v2 - -119 -12.5 867.3MHz, SF9BW125, 4/5CR
2021-07-03 14:52:54 29.25°C 50.625% 3.35V 8192,12,12467,207,10815,12,11619,141,8400,12,8344,12 v255 52.1338 / 6.71255 684 ttn.v2 - -120 -13 868.1MHz, SF12BW125, 4/5CR
2021-06-29 08:09:54 19.125°C 114.875% 3.36V 8375,12,12704,152,11265,141,12112,147,8592,12,8532,12 v255 52.1338 / 6.71252 492 ttn.v2 - -116 -16.5 868.1MHz, SF12BW125, 4/5CR
2021-06-28 16:37:46 22.875°C 33.0625% 3.36V 8354,12,12683,160,11113,138,11931,146,8565,12,8512,12 v255 52.1339 / 6.71249 463 ttn.v2 - -120 -12.5 867.3MHz, SF9BW125, 4/5CR
2021-06-28 15:33:25 28.375°C 90.625% 3.35V 8263,12,12573,187,10940,139,11712,146,8476,12,8424,12 v255 52.1339 / 6.71249 461 ttn.v2 - -121 -13 867.1MHz, SF9BW125, 4/5CR
2021-06-27 18:40:12 26.6875°C 57.375% 3.35V 8306,12,12616,171,10970,151,11738,144,8524,12,8462,12 v255 52.1339 / 6.71249 422 ttn.v2 - -120 -14 868.3MHz, SF9BW125, 4/5CR
2021-06-27 18:08:00 27.8125°C 45.875% 3.36V 8282,12,12594,179,10934,136,11705,144,8493,12,8436,12 v255 52.1339 / 6.71249 421 ttn.v2 - -121 -13.5 867.1MHz, SF9BW125, 4/5CR
2021-06-27 17:35:48 30.25°C 44.4375% 3.36V 8256,12,12534,193,10847,12,11641,144,8448,12,8392,12 v255 52.1339 / 6.71249 420 ttn.v2 - -120 -13 868.1MHz, SF9BW125, 4/5CR
2021-06-27 15:59:09 30.5625°C 43.625% 3.36V 8211,12,12485,203,10800,12,11591,143,8410,12,8354,12 v255 52.1339 / 6.71249 417 ttn.v2 - -117 -12.8 867.7MHz, SF9BW125, 4/5CR
2021-06-27 13:50:20 28.875°C 47.625% 3.36V 8218,12,12490,199,10800,12,11586,143,8415,12,8366,12 v255 52.1339 / 6.71249 413 ttn.v2 - -120 -13 867.3MHz, SF9BW125, 4/5CR
2021-06-27 04:44:48 14.75°C 94.4375% 3.37V 8435,12,12771,133,11200,132,11994,144,8646,12,8591,12 v255 52.1339 / 6.71249 396 ttn.v2 - -119 -14 868.1MHz, SF12BW125, 4/5CR
15.782km -121 -19 868.1MHz, SF12BW125, 4/5CR
2021-06-27 03:07:46 14.5625°C 84.625% 3.36V 8445,12,12776,132,11194,133,11996,144,8649,12,8596,12 v255 52.1338 / 6.71255 393 ttn.v2 - -119 -13.2 867.3MHz, SF9BW125, 4/5CR
2021-06-27 02:03:35 14.1875°C 41.9375% 3.36V 8441,12,12784,132,11189,144,11986,144,8649,12,8593,12 v255 52.1338 / 6.71255 391 ttn.v2 - -119 -13.2 867.1MHz, SF9BW125, 4/5CR
2021-06-26 20:42:35 20.875°C 32.8125% 3.36V 8385,12,12703,151,11076,121,11687,143,8589,12,8524,12 v255 52.1338 / 6.71255 381 ttn.v2 - -119 -13.8 867.1MHz, SF9BW125, 4/5CR
2021-06-26 16:25:14 25.8125°C 58.625% 3.36V 8298,12,12611,174,10945,148,11556,142,8514,12,8460,12 v255 52.1338 / 6.71255 373 ttn.v2 - -119 -13.5 867.3MHz, SF9BW125, 4/5CR
2021-06-26 15:20:53 25.5625°C 54.25% 3.36V 8285,12,12602,177,10940,149,11534,142,8502,12,8446,12 v255 52.1338 / 6.71255 371 ttn.v2 - -120 -12.5 867.1MHz, SF9BW125, 4/5CR
2021-06-26 13:12:09 26.5625°C 55.4375% 3.36V 8272,12,12567,185,10893,132,11519,141,8476,12,8421,12 v255 52.1338 / 6.71255 367 ttn.v2 - -118 -12.2 867.7MHz, SF9BW125, 4/5CR
2021-06-25 10:58:32 19.875°C 54.4375% 3.36V 8289,12,12586,178,10903,141,11522,142,8490,12,8430,12 v255 52.1338 / 6.71255 318 ttn.v2 - -120 -13.2 868.1MHz, SF9BW125, 4/5CR
2021-06-25 08:18:00 15.4375°C 32.25% 3.36V 8405,12,12738,148,11139,125,11746,142,8623,12,8566,12 v255 52.1338 / 6.71255 313 ttn.v2 - -118 -13.5 867.3MHz, SF9BW125, 4/5CR
2021-06-25 07:13:50 9.5625°C 92.1875% 3.36V 8489,12,12818,121,11222,139,11844,142,8683,12,8623,12 v255 52.1338 / 6.71255 311 ttn.v2 - -120 -13.5 867.1MHz, SF9BW125, 4/5CR
2021-06-25 01:21:49 13.9375°C 32.125% 3.36V 8431,12,12768,134,11153,143,11782,142,8648,12,8582,12 v255 52.1338 / 6.71255 300 ttn.v2 - -120 -15.8 868.1MHz, SF12BW125, 4/5CR
2021-06-22 22:00:24 14.75°C 113.375% 3.35V 8431,12,12758,134,11113,146,11698,142,8642,12,8586,12 v255 52.1339 / 6.71255 204 ttn.v2 - -119 -18.5 868.1MHz, SF12BW125, 4/5CR
2021-06-22 15:34:08 19.1875°C 91.25% 3.36V 8331,12,12648,162,10970,132,11567,141,8547,12,8494,12 v255 52.1339 / 6.7124 192 ttn.v2 - -119 -14.5 868.1MHz, SF9BW125, 4/5CR
2021-06-21 01:35:40 17.1875°C 32.4375% 3.36V 8404,12,12729,142,11072,152,11653,147,8603,12,8556,12 v255 52.1339 / 6.7124 121 ttn.v2 - -121 -11.2 867.1MHz, SF9BW125, 4/5CR
2021-06-21 01:03:33 17.375°C 32.4375% 3.36V 8400,12,12735,143,11066,153,11650,147,8605,12,8557,12 v255 52.1339 / 6.7124 120 ttn.v2 - -121 -13.2 868.1MHz, SF9BW125, 4/5CR
2021-06-20 23:59:19 18.4375°C 32.5625% 3.36V 8399,12,12724,145,11061,154,11636,147,8605,12,8547,12 v255 52.1339 / 6.7124 118 ttn.v2 - -117 -12.8 868.5MHz, SF9BW125, 4/5CR
2021-06-20 23:27:12 18.9375°C 32.625% 3.36V 8394,12,12717,146,11042,154,11622,147,8594,12,8543,12 v255 52.1339 / 6.7124 117 ttn.v2 - -120 -12.8 867.7MHz, SF9BW125, 4/5CR
2021-06-20 22:55:05 19.0625°C 32.625% 3.36V 8394,12,12708,147,11039,154,11625,147,8591,12,8538,12 v255 52.1339 / 6.7124 116 ttn.v2 - -118 -12.2 868.3MHz, SF9BW125, 4/5CR
2021-06-20 21:18:42 20.1875°C 32.75% 3.36V 8379,12,12695,151,11016,155,11596,147,8584,12,8531,12 v255 52.1339 / 6.7124 113 ttn.v2 - -118 -12.8 867.3MHz, SF9BW125, 4/5CR
2021-06-20 20:46:34 21.1875°C 82.8125% 3.36V 8371,12,12685,155,10990,153,11570,147,8576,12,8522,12 v255 52.1339 / 6.7124 112 ttn.v2 - -119 -13 868.5MHz, SF9BW125, 4/5CR
2021-06-20 20:14:25 21.875°C 73.0625% 3.36V 8361,12,12680,156,10974,155,11548,147,8566,12,8512,12 v255 52.1339 / 6.7124 111 ttn.v2 - -120 -11.5 867.1MHz, SF9BW125, 4/5CR
2021-06-20 18:38:24 28.0625°C 56.6875% 3.36V 8271,12,12586,181,10862,144,11446,146,8490,12,8434,12 v255 52.1339 / 6.7124 108 ttn.v2 - -118 -14 868.1MHz, SF12BW125, 4/5CR
2021-06-20 18:05:45 27.625°C 54.1875% 3.36V 8274,12,12554,187,10844,139,11424,146,8466,12,8414,12 v255 52.1339 / 6.71255 107 ttn.v2 - -117 -13.2 867.7MHz, SF9BW125, 4/5CR
2021-06-20 17:33:34 26.0625°C 63.3125% 3.35V 8269,12,12581,181,10869,145,11445,146,8486,12,8434,12 v255 52.1339 / 6.71255 106 ttn.v2 - -117 -13.2 868.5MHz, SF9BW125, 4/5CR
2021-06-20 17:01:24 25.5°C 65.9375% 3.36V 8279,12,12592,176,10888,123,11465,146,8496,12,8442,12 v255 52.1339 / 6.71255 105 ttn.v2 - -119 -11 867.5MHz, SF9BW125, 4/5CR
2021-06-20 15:57:02 26.8125°C 59.75% 3.36V 8253,12,12534,191,10795,131,11406,146,8457,12,8392,12 v255 52.1339 / 6.71255 103 ttn.v2 - -120 -11.5 867.3MHz, SF9BW125, 4/5CR
2021-06-20 15:24:51 27.4375°C 59.8125% 3.36V 8234,12,12510,194,10771,145,11375,146,8429,12,8376,12 v255 52.1339 / 6.71255 102 ttn.v2 - -118 -12.8 868.1MHz, SF9BW125, 4/5CR
2021-06-20 14:52:40 23.625°C 7.75% 3.36V 8322,12,12618,169,10914,112,11490,146,8522,12,8464,12 v255 52.1339 / 6.71255 101 ttn.v2 - -120 -12.8 867.1MHz, SF9BW125, 4/5CR
2021-06-20 14:20:31 23.625°C 97.5% 3.36V 8293,12,12608,172,10901,148,11479,146,8505,12,8453,12 v255 52.1339 / 6.71255 100 ttn.v2 - -120 -12.2 868.5MHz, SF9BW125, 4/5CR
2021-06-20 13:48:21 25.5625°C 75.875% 3.36V 8238,12,12531,187,10780,142,11388,146,8444,12,8386,12 v255 52.1339 / 6.71255 99 ttn.v2 - -118 -11.8 867.9MHz, SF9BW125, 4/5CR
2021-06-20 12:44:01 25.1875°C 96.125% 3.36V 8236,12,12514,190,10794,134,11390,146,8438,12,8380,12 v255 52.1339 / 6.71255 97 ttn.v2 - -118 -13 867.7MHz, SF9BW125, 4/5CR
2021-06-19 22:48:41 18.5°C 32.5625% 3.35V 8387,12,12708,146,11029,146,11602,147,8595,12,8540,12 v255 52.1339 / 6.71255 71 ttn.v2 - -120 -11.2 867.1MHz, SF9BW125, 4/5CR
2021-06-19 21:44:27 19.125°C 32.625% 3.36V 8389,12,12709,148,11004,155,11567,147,8593,12,8537,12 v255 52.1339 / 6.71255 69 ttn.v2 - -121 -13.8 867.9MHz, SF9BW125, 4/5CR
2021-06-19 21:12:19 20.3125°C 32.8125% 3.36V 8376,12,12687,151,10982,157,11544,147,8581,12,8528,12 v255 52.1339 / 6.71255 68 ttn.v2 - -118 -14.5 868.3MHz, SF9BW125, 4/5CR
2021-06-19 19:03:43 25.875°C 78.0625% 3.36V 8302,12,12610,172,10862,135,11414,146,8514,12,8463,12 v255 52.1339 / 6.71255 64 ttn.v2 - -117 -15 868.5MHz, SF9BW125, 4/5CR
2021-06-19 18:31:32 26.75°C 71.0625% 3.36V 8277,12,12594,181,10827,115,11389,146,8486,12,8436,12 v255 52.1339 / 6.71255 63 ttn.v2 - -120 -11.2 867.3MHz, SF9BW125, 4/5CR
2021-06-19 17:59:22 26.9375°C 67.25% 3.36V 8267,12,12559,186,10801,142,11363,146,8468,12,8418,12 v255 52.1339 / 6.71255 62 ttn.v2 - -118 -13.2 868.3MHz, SF9BW125, 4/5CR
2021-06-19 17:27:11 27.8125°C 70.5625% 3.36V 8254,12,12525,192,10771,139,11325,146,8451,12,8395,12 v255 52.1339 / 6.71255 61 ttn.v2 - -119 -10.8 867.1MHz, SF9BW125, 4/5CR
2021-06-19 16:55:00 25.9375°C 87.5% 3.36V 8272,12,12553,186,10793,133,11340,146,8462,12,8408,12 v255 52.1339 / 6.71255 60 ttn.v2 - -120 -12.8 868.1MHz, SF9BW125, 4/5CR
2021-06-19 13:09:39 28.3125°C 53.625% 3.36V 8254,12,12521,191,10778,144,11330,145,8440,12,8383,12 v255 52.1339 / 6.71255 53 ttn.v2 - -118 -11.8 867.3MHz, SF9BW125, 4/5CR
2021-06-19 12:37:27 27.25°C 4.8125% 3.36V 8171,12,12428,209,10676,12,11230,145,8362,12,8304,12 v255 52.1339 / 6.71255 52 ttn.v2 - -119 -12.5 868.5MHz, SF9BW125, 4/5CR
2021-06-19 12:05:16 26.5625°C 82% 3.36V 8163,12,12434,210,10683,12,11237,145,8363,12,8305,12 v255 52.1339 / 6.71255 51 ttn.v2 - -118 -11.2 867.1MHz, SF9BW125, 4/5CR
2021-06-19 11:00:55 25°C 113.375% 3.36V 8216,12,12489,197,10760,140,11326,145,8413,12,8365,12 v255 52.1339 / 6.71255 49 ttn.v2 - -119 -13 867.9MHz, SF9BW125, 4/5CR
2021-06-19 08:20:08 21.875°C 32.9375% 3.36V 8337,12,12651,163,11063,149,11625,146,8553,12,8498,12 v255 52.1339 / 6.71255 44 ttn.v2 - -119 -14.2 868.3MHz, SF9BW125, 4/5CR
2021-06-19 07:48:00 20.1875°C 32.75% 3.35V 8375,12,12712,153,11119,149,11702,146,8582,12,8532,12 v255 52.1339 / 6.71255 43 ttn.v2 - -120 -13.5 867.3MHz, SF9BW125, 4/5CR
2021-06-19 06:43:46 17.75°C 7.3125% 3.36V 8401,12,12721,144,11154,150,11732,146,8601,12,8547,12 v255 52.1339 / 6.71255 41 ttn.v2 - -119 -13.5 867.1MHz, SF9BW125, 4/5CR
2021-06-19 04:35:20 16.875°C 48.1875% 3.36V 8414,12,12737,138,11161,151,11738,146,8621,12,8567,12 v255 52.1339 / 6.71255 37 ttn.v2 - -119 -12.2 867.7MHz, SF9BW125, 4/5CR
2021-06-19 03:31:07 16.3125°C 115% 3.36V 8420,12,12743,138,11165,152,11741,146,8625,12,8570,12 v255 52.1339 / 6.71255 35 ttn.v2 - -119 -11.8 867.5MHz, SF9BW125, 4/5CR
2021-06-19 02:26:54 16.875°C 87% 3.36V 8418,12,12755,140,11145,153,11713,146,8608,12,8557,12 v255 52.1339 / 6.71255 33 ttn.v2 - -119 -11.8 867.3MHz, SF9BW125, 4/5CR
2021-06-19 01:22:40 17.875°C 66.75% 3.36V 8397,12,12729,142,11134,154,11706,146,8613,12,8558,12 v255 52.1339 / 6.71255 31 ttn.v2 - -120 -12.5 867.1MHz, SF9BW125, 4/5CR
2021-06-18 22:42:02 20.625°C 32.8125% 3.36V 8368,12,12698,151,11079,157,11665,145,8582,12,8528,12 v255 52.1339 / 6.71255 26 ttn.v2 - -119 -13.8 868.3MHz, SF9BW125, 4/5CR
2021-06-18 22:09:54 20.625°C 32.8125% 3.36V 8366,12,12693,151,11085,157,11653,145,8583,12,8534,12 v255 52.1339 / 6.71255 25 ttn.v2 - -120 -12.5 867.5MHz, SF9BW125, 4/5CR
2021-06-18 21:05:36 22.9375°C 33.0625% 3.36V 8338,12,12650,160,11072,158,11614,145,8551,12,8495,12 v255 52.1339 / 6.71255 23 ttn.v2 - -118 -13.2 867.3MHz, SF9BW125, 4/5CR
2021-06-18 20:33:26 25.25°C 104.875% 3.36V 8339,12,12650,161,11012,159,11550,145,8547,12,8492,12 v255 52.1339 / 6.71255 22 ttn.v2 - -120 -13.2 868.5MHz, SF9BW125, 4/5CR
2021-06-18 20:01:14 28.5625°C 65.625% 3.35V 8321,12,12627,168,10882,152,11423,144,8522,12,8461,12 v255 52.1339 / 6.71255 21 ttn.v2 - -120 -10.2 867.1MHz, SF9BW125, 4/5CR
2021-06-18 18:56:48 30.125°C 58.125% 3.36V 8291,12,12584,177,10842,137,11383,144,8495,12,8438,12 v255 52.1339 / 6.71255 19 ttn.v2 - -119 -12.2 867.9MHz, SF9BW125, 4/5CR
2021-06-18 17:52:18 34.25°C 43.75% 3.35V 8239,12,12509,200,10733,147,11291,144,8433,12,8374,12 v255 52.1339 / 6.71255 17 ttn.v2 - -120 -10 867.7MHz, SF9BW125, 4/5CR
2021-06-18 17:20:01 34.5625°C 39.4375% 3.35V 8194,12,12462,208,10678,12,11241,144,8393,12,8343,12 v255 52.1339 / 6.71255 16 ttn.v2 - -119 -13.2 868.5MHz, SF9BW125, 4/5CR
2021-06-18 16:47:45 34.1875°C 44.125% 3.36V 8205,12,12487,204,10733,138,11259,144,8407,12,8353,12 v255 52.1339 / 6.71255 15 ttn.v2 - -120 -11.2 867.5MHz, SF9BW125, 4/5CR
2021-06-18 15:11:48 33.9375°C 50.8125% 3.36V 8151,12,12411,217,10642,12,11200,143,8352,12,8298,12 v255 52.1339 / 6.71255 12 ttn.v2 - -120 -10.8 867.3MHz, SF12BW125, 4/5CR
2021-06-18 14:06:32 32.0625°C 90.75% 3.36V 8153,12,12413,216,10658,12,11200,143,8353,12,8297,12 v255 52.1339 / 6.71255 10 ttn.v2 - -120 -11.2 867.1MHz, SF9BW125, 4/5CR
2021-06-18 11:57:43 25.625°C 54.375% 3.36V 8285,12,12594,177,10840,123,11363,143,8494,12,8438,12 v255 52.1339 / 6.71255 6 ttn.v2 - -120 -13 867.7MHz, SF9BW125, 4/5CR
2021-06-18 11:25:32 25.8125°C 70.5625% 3.36V 8267,12,12580,181,10813,123,11339,143,8472,12,8426,12 v255 52.1339 / 6.71255 5 ttn.v2 - -118 -12.8 868.5MHz, SF9BW125, 4/5CR
2021-06-18 09:16:49 24.5625°C 70% 3.36V 8288,12,12573,183,10823,149,11354,143,8479,12,8424,12 v255 52.1339 / 6.71255 1 ttn.v2 - -119 -10.8 868.1MHz, SF9BW125, 4/5CR
2021-06-18 08:44:45 22.625°C 33% 3.36V 8309,12,12634,170,10887,149,11427,144,8521,12,8469,12 v255 52.1339 / 6.71255 0 ttn.v2 - -119 -10 867.1MHz, SF9BW125, 4/5CR
2021-06-15 21:53:23 -26°C -26% 3.36V 8390,12,12706,147,10532,112,11185,144,8585,12,8528,12 v255 52.1563 / 5.37466 0 ttn.v2 0.598km -94 12.8 867.1MHz, SF9BW125, 4/5CR
0.251km -108 6 867.1MHz, SF9BW125, 4/5CR
0.779km -118 2.2 867.1MHz, SF9BW125, 4/5CR
0.375km -113 1.8 867.1MHz, SF9BW125, 4/5CR
0.728km -119 -0.75 867.1MHz, SF9BW125, 4/5CR
2.002km -120 -7.25 867.1MHz, SF9BW125, 4/5CR
2021-06-15 21:51:56 -26°C -26% 3.36V 8378,12,12709,147,10757,122,11598,144,8588,12,8530,12 v255 52.1563 / 5.37463 0 ttn.v2 0.596km -95 12 867.1MHz, SF9BW125, 4/5CR
2.003km -113 6 867.1MHz, SF9BW125, 4/5CR
0.777km -117 1.5 867.1MHz, SF9BW125, 4/5CR
0.374km -115 0.2 867.1MHz, SF9BW125, 4/5CR
0.729km -121 -10 867.1MHz, SF9BW125, 4/5CR
2021-06-15 21:48:44 -26°C -26% 3.36V 8381,12,12696,148,10768,121,11603,144,8584,12,8532,12 v255 No position 3 ttn.v2 - -93 12.2 867.3MHz, SF9BW125, 4/5CR
- -114 6 867.3MHz, SF9BW125, 4/5CR
- -112 4.8 867.3MHz, SF9BW125, 4/5CR
- -114 0.75 867.3MHz, SF9BW125, 4/5CR
- -119 -0.2 867.3MHz, SF9BW125, 4/5CR
- -120 -9.25 867.3MHz, SF9BW125, 4/5CR
2021-06-15 21:43:23 -26°C -26% 3.36V 8382,12,12695,149,10892,123,11750,144,8589,12,8528,12 v255 No position 2 ttn.v2 - -93 8.5 868.3MHz, SF9BW125, 4/5CR
- -113 4.5 868.3MHz, SF9BW125, 4/5CR
- -112 2 868.3MHz, SF9BW125, 4/5CR
- -119 -11 868.3MHz, SF9BW125, 4/5CR
2021-06-15 21:38:02 -26°C -26% 3.36V 8371,12,12687,151,10881,124,11741,144,8572,12,8522,12 v255 No position 1 ttn.v2 - -93 12 868.1MHz, SF9BW125, 4/5CR
- -113 6.25 868.1MHz, SF9BW125, 4/5CR
- -114 3.8 868.1MHz, SF9BW125, 4/5CR
- -120 -5 868.1MHz, SF9BW125, 4/5CR
- -121 -9 868.1MHz, SF9BW125, 4/5CR
2021-06-15 21:32:50 -26°C -26% 3.36V 8364,12,12669,153,10948,143,11715,144,8563,12,8509,12 v255 No position 0 ttn.v2 - -95 12.5 867.1MHz, SF9BW125, 4/5CR
- -113 4.5 867.1MHz, SF9BW125, 4/5CR
- -115 2.25 867.1MHz, SF9BW125, 4/5CR
- -115 1.2 867.1MHz, SF9BW125, 4/5CR
2021-06-15 21:30:25 -26°C -26% 3.36V 8349,12,12659,154,10968,143,11732,145,8565,12,8512,12 v255 52.1563 / 5.37466 0 ttn.v2 0.598km -93 12.2 867.9MHz, SF9BW125, 4/5CR
2.002km -118 1.5 867.9MHz, SF9BW125, 4/5CR
0.251km -115 1 867.9MHz, SF9BW125, 4/5CR
0.375km -117 -0.2 867.9MHz, SF9BW125, 4/5CR
0.728km -119 -2.75 867.9MHz, SF9BW125, 4/5CR
0.781km -119 -14.2 867.9MHz, SF9BW125, 4/5CR
2021-06-15 21:29:01 -26°C -26% 3.36V 8355,12,12667,155,10948,144,11742,145,8563,12,8511,12 v255 52.1564 / 5.37466 0 ttn.v2 0.598km -98 10.5 867.1MHz, SF9BW125, 4/5CR
0.26km -113 5.25 867.1MHz, SF9BW125, 4/5CR
1.993km -119 -1.25 867.1MHz, SF9BW125, 4/5CR
0.368km -119 -2.2 867.1MHz, SF9BW125, 4/5CR
0.789km -118 -5.2 867.1MHz, SF9BW125, 4/5CR
0.718km -121 -7.75 867.1MHz, SF9BW125, 4/5CR
2021-06-15 21:27:25 -26°C -26% 3.36V 8345,12,12664,156,10949,145,11721,146,8555,12,8496,12 v255 52.1563 / 5.37473 0 ttn.v2 0.603km -101 12.5 867.1MHz, SF9BW125, 4/5CR
0.254km -115 0.5 867.1MHz, SF9BW125, 4/5CR
0.379km -118 -3.2 867.1MHz, SF9BW125, 4/5CR
1.999km -120 -3.25 867.1MHz, SF9BW125, 4/5CR
0.783km -118 -5 867.1MHz, SF9BW125, 4/5CR
0.727km -120 -10.75 867.1MHz, SF9BW125, 4/5CR
2021-06-15 21:26:11 -26°C -26% 3.36V 8343,12,12661,157,10952,147,11724,147,8551,12,8500,12 v255 52.1564 / 5.37466 0 ttn.v2 1.993km -119 -7.25 867.1MHz, SF9BW125, 4/5CR
2021-06-15 21:26:10 -26°C -26% 3.36V 8343,12,12661,157,10952,147,11724,147,8551,12,8500,12 v255 52.1564 / 5.37466 0 ttn.v2 0.598km -97 11.5 867.1MHz, SF9BW125, 4/5CR
0.26km -109 5.25 867.1MHz, SF9BW125, 4/5CR
0.789km -120 -2.8 867.1MHz, SF9BW125, 4/5CR
0.718km -121 -8.25 867.1MHz, SF9BW125, 4/5CR
0.368km -119 -8.5 867.1MHz, SF9BW125, 4/5CR
2021-06-15 21:24:37 -26°C -26% 3.36V 8343,12,12651,158,10938,149,11715,149,8549,12,8495,12 v255 52.1564 / 5.37445 0 ttn.v2 0.584km -94 11.2 867.3MHz, SF9BW125, 4/5CR
0.252km -111 6.25 867.3MHz, SF9BW125, 4/5CR
0.357km -112 5.5 867.3MHz, SF9BW125, 4/5CR
0.78km -119 0.5 867.3MHz, SF9BW125, 4/5CR
2.002km -119 0 867.3MHz, SF9BW125, 4/5CR
0.721km -118 -7.25 867.3MHz, SF9BW125, 4/5CR
2021-06-15 21:23:18 -26°C -26% 3.36V 8348,12,12655,160,10914,156,11719,154,8551,12,8495,12 v255 52.1563 / 5.37463 0 ttn.v2 0.596km -97 8.5 867.5MHz, SF9BW125, 4/5CR
0.374km -114 4 867.5MHz, SF9BW125, 4/5CR
0.25km -111 -0.75 867.5MHz, SF9BW125, 4/5CR
0.778km -115 -2.2 867.5MHz, SF9BW125, 4/5CR
0.729km -120 -5 867.5MHz, SF9BW125, 4/5CR
2.003km -115 -7 867.5MHz, SF9BW125, 4/5CR
2021-06-15 21:20:43 -26°C -26% 3.36V 8340,12,12647,158,9298,157,9764,157,8547,12,8498,12 v255 52.1563 / 5.37469 0 ttn.v2 0.6km -103 11.2 867.1MHz, SF9BW125, 4/5CR
0.377km -112 5.8 867.1MHz, SF9BW125, 4/5CR
0.728km -120 1.25 867.1MHz, SF9BW125, 4/5CR
0.252km -117 -1.5 867.1MHz, SF9BW125, 4/5CR
0.781km -119 -9.8 867.1MHz, SF9BW125, 4/5CR
1.576km -118 -12.25 867.1MHz, SF9BW125, 4/5CR
2021-06-15 21:17:50 -26°C -26% 3.36V 0,0,0,0,0,0,0,0,0,0,0,0 v255 52.1564 / 5.37466 0 ttn.v2 0.598km -95 8.5 867.5MHz, SF9BW125, 4/5CR
0.26km -103 7 867.5MHz, SF9BW125, 4/5CR
0.789km -111 3.8 867.5MHz, SF9BW125, 4/5CR
1.993km -114 2.25 867.5MHz, SF9BW125, 4/5CR
2021-06-15 21:16:24 -26°C -26% 3.36V 0,0,0,0,0,0,0,0,0,0,0,0 v255 52.1563 / 5.37469 0 ttn.v2 0.6km -95 11.2 867.1MHz, SF9BW125, 4/5CR
0.252km -107 7.75 867.1MHz, SF9BW125, 4/5CR
0.377km -117 2.2 867.1MHz, SF9BW125, 4/5CR
0.781km -120 -2.8 867.1MHz, SF9BW125, 4/5CR
0.728km -121 -4.75 867.1MHz, SF9BW125, 4/5CR
2021-06-15 21:13:44 -26°C -26% 3.36V 0,0,0,0,0,0,0,0,0,0,0,0 v255 No position 0 ttn.v2 - -107 8.8 867.1MHz, SF9BW125, 4/5CR
- -111 7.25 867.1MHz, SF9BW125, 4/5CR
- -120 -9.25 867.1MHz, SF9BW125, 4/5CR
- -119 -10.5 867.1MHz, SF9BW125, 4/5CR
2021-06-15 21:12:03 25.75°C 52.125% 3.36V 0,0,0,0,0,0,0,0,0,0,0,0 v255 52.1563 / 5.37466 0 ttn.v2 0.598km -105 10.2 867.3MHz, SF9BW125, 4/5CR
0.251km -107 8.25 867.3MHz, SF9BW125, 4/5CR
0.728km -113 1 867.3MHz, SF9BW125, 4/5CR
0.78km -115 -4 867.3MHz, SF9BW125, 4/5CR
31.409km -118 -11.75 867.3MHz, SF9BW125, 4/5CR
2021-06-15 21:11:11 23.75°C 61.125% 3.36V 0,0,0,0,0,0,0,0,0,0,0,0 v255 52.1563 / 5.37466 0 ttn.v2 0.598km -100 11 867.1MHz, SF9BW125, 4/5CR
0.375km -113 5.2 867.1MHz, SF9BW125, 4/5CR
0.728km -119 1.75 867.1MHz, SF9BW125, 4/5CR
0.78km -117 1 867.1MHz, SF9BW125, 4/5CR
0.251km -117 -0.25 867.1MHz, SF9BW125, 4/5CR
2.002km -118 -9.75 867.1MHz, SF9BW125, 4/5CR
2021-06-15 21:10:09 -26°C -26% 3.36V 0,0,0,0,0,0,0,0,0,0,0,0 v255 52.1564 / 5.37466 0 ttn.v2 0.598km -99 10.8 867.1MHz, SF9BW125, 4/5CR
0.718km -120 -1.5 867.1MHz, SF9BW125, 4/5CR
0.789km -117 -4.8 867.1MHz, SF9BW125, 4/5CR
0.368km -120 -9.2 867.1MHz, SF9BW125, 4/5CR
1.993km -119 -11.25 867.1MHz, SF9BW125, 4/5CR
2021-06-15 21:08:44 -26°C -26% 3.36V 0,0,0,0,0,0,0,0,0,0,0,0 v255 52.1564 / 5.37466 0 ttn.v2 0.598km -101 8.2 867.5MHz, SF9BW125, 4/5CR
0.26km -111 2.5 867.5MHz, SF9BW125, 4/5CR
0.789km -115 -2 867.5MHz, SF9BW125, 4/5CR
0.368km -117 -5 867.5MHz, SF9BW125, 4/5CR
0.718km -119 -7.5 867.5MHz, SF9BW125, 4/5CR
1.993km -118 -8.75 867.5MHz, SF9BW125, 4/5CR
2021-06-15 21:06:30 20.9375°C 53.625% 3.36V 0,0,0,0,0,0,0,0,0,0,0,0 v255 52.1565 / 5.37469 0 ttn.v2 0.6km -105 10 867.1MHz, SF9BW125, 4/5CR
0.27km -102 9.75 867.1MHz, SF9BW125, 4/5CR
0.362km -113 4 867.1MHz, SF9BW125, 4/5CR
0.706km -115 3.75 867.1MHz, SF9BW125, 4/5CR
1.983km -115 2 867.1MHz, SF9BW125, 4/5CR
0.801km -120 -3.5 867.1MHz, SF9BW125, 4/5CR
2021-06-15 21:05:48 21.0625°C 53.8125% 3.36V 0,0,0,0,0,0,0,0,0,0,0,0 v255 52.1564 / 5.37466 0 ttn.v2 0.598km -100 10 867.1MHz, SF9BW125, 4/5CR
0.26km -105 9.75 867.1MHz, SF9BW125, 4/5CR
0.368km -119 -1 867.1MHz, SF9BW125, 4/5CR
0.718km -101 -12.75 867.1MHz, SF9BW125, 4/5CR
2021-06-15 21:05:10 21.0625°C 53% 3.36V 0,0,0,0,0,0,0,0,0,0,0,0 v255 52.1564 / 5.37473 0 ttn.v2 0.603km -103 11.8 867.9MHz, SF9BW125, 4/5CR
0.263km -113 6.75 867.9MHz, SF9BW125, 4/5CR
0.371km -115 4.8 867.9MHz, SF9BW125, 4/5CR
0.793km -112 4 867.9MHz, SF9BW125, 4/5CR
1.99km -118 -2.5 867.9MHz, SF9BW125, 4/5CR
0.717km -121 -2.75 867.9MHz, SF9BW125, 4/5CR
31.406km -119 -13 867.9MHz, SF9BW125, 4/5CR
2021-06-15 21:04:17 21.4375°C 55% 3.37V 0,0,0,0,0,0,0,0,0,0,0,0 v255 52.1564 / 5.37469 0 ttn.v2 0.6km -104 9.5 867.7MHz, SF9BW125, 4/5CR
0.369km -112 4 867.7MHz, SF9BW125, 4/5CR
0.791km -115 4 867.7MHz, SF9BW125, 4/5CR
0.717km -117 3.75 867.7MHz, SF9BW125, 4/5CR
0.261km -113 3.25 867.7MHz, SF9BW125, 4/5CR
1.992km -118 -10 867.7MHz, SF9BW125, 4/5CR
31.407km -120 -12.75 867.7MHz, SF9BW125, 4/5CR
2020-11-25 10:12:25 -26°C -26% 3.36V 8307,12,12964,135,9075,132,11537,124,12197,118,12718,114 v255 No position 0 ttn.v2 - -101 12.5 867.3MHz, SF9BW125, 4/5CR
- -109 9.5 867.3MHz, SF9BW125, 4/5CR
- -109 1.5 867.3MHz, SF9BW125, 4/5CR
- -114 1 867.3MHz, SF9BW125, 4/5CR
- -117 -7.5 867.3MHz, SF9BW125, 4/5CR
2020-11-25 09:03:13 -26°C -26% 3.37V 0,0,0,0,0,0,0,0,0,0,0,0 v255 No position 0 ttn.v2 - -91 12.75 867.1MHz, SF9BW125, 4/5CR
- -118 0.8 867.1MHz, SF9BW125, 4/5CR
- -119 -5.25 867.1MHz, SF9BW125, 4/5CR
- -118 -10 867.1MHz, SF9BW125, 4/5CR
- -121 -12.25 867.1MHz, SF9BW125, 4/5CR
- -113 -13.2 867.1MHz, SF9BW125, 4/5CR
2020-11-25 09:00:26 -26°C -26% 3.37V 0,0,0,0,0,0,0,0,0,0,0,0 v255 No position 0 ttn.v2 - -91 13.75 867.1MHz, SF9BW125, 4/5CR
- -120 -6.5 867.1MHz, SF9BW125, 4/5CR
- -111 -7 867.1MHz, SF9BW125, 4/5CR
- -119 -8.5 867.1MHz, SF9BW125, 4/5CR
- -119 -12 867.1MHz, SF9BW125, 4/5CR
- -116 -12.25 867.1MHz, SF9BW125, 4/5CR
2020-11-11 12:45:33 16.4375°C -3.625% 3.36V 0,0,0,0,0,0,0,0,0,0,0,0 v255 No position 0 ttn.v2 - -101 13 867.1MHz, SF9BW125, 4/5CR
- -117 3.75 867.1MHz, SF9BW125, 4/5CR
- -111 1.5 867.1MHz, SF9BW125, 4/5CR
- -118 -6.5 867.1MHz, SF9BW125, 4/5CR
- -120 -10 867.1MHz, SF9BW125, 4/5CR
2020-11-05 18:25:56 14.125°C 17.625% 3.36V 0 v255 No position 0 ttn.v2 - -91 13.5 867.1MHz, SF9BW125, 4/5CR
- -109 2.8 867.1MHz, SF9BW125, 4/5CR
- -119 -0.5 867.1MHz, SF9BW125, 4/5CR
- -119 -1.5 867.1MHz, SF9BW125, 4/5CR
- -119 -8.25 867.1MHz, SF9BW125, 4/5CR
- -119 -9.2 867.1MHz, SF9BW125, 4/5CR
- -119 -10.5 867.1MHz, SF9BW125, 4/5CR
- -117 -12.2 867.1MHz, SF9BW125, 4/5CR
2020-10-04 11:53:58 11.5625°C 113% 3.36V 10768,12,16195,118,18616,123,21570,128,31645,130,56096,131 v255 52.1338 / 6.71259 0 ttn.v2 - -121 -13.8 867.1MHz, SF9BW125, 4/5CR
2020-10-04 11:53:57 11.5625°C 113% 3.36V 10768,12,16195,118,18616,123,21570,128,31645,130,56096,131 v255 52.1338 / 6.71259 0 ttn.v2 - -121 -13.5 867.1MHz, SF9BW125, 4/5CR
2020-10-04 10:32:13 11°C 105.812% 3.03V 10879,12,16210,117,18380,123,21270,128,31185,130,60695,131 v255 52.1338 / 6.71255 96 ttn.v2 - -116 -13.2 867.7MHz, SF12BW125, 4/5CR
2020-10-04 10:15:47 11.9375°C 112.438% 3.35V 10750,12,16194,121,18220,123,21322,128,31331,130,64428,131 v255 52.1338 / 6.71252 95 ttn.v2 - -118 -10.2 868.1MHz, SF9BW125, 4/5CR
2020-10-04 09:59:48 11.875°C 108.75% 3.36V 10726,12,16177,123,18199,124,21318,128,31408,130,3106,131 v255 52.1338 / 6.71252 94 ttn.v2 - -118 -11.8 867.5MHz, SF9BW125, 4/5CR
2020-10-04 09:27:50 10.875°C 98.0625% 3.36V 10730,12,16172,118,18048,123,21031,128,30926,130,2036,131 v255 52.1338 / 6.71252 92 ttn.v2 - -118 -10.8 867.3MHz, SF9BW125, 4/5CR
2020-10-04 08:55:52 10.5625°C 98.0625% 3.35V 10799,12,16180,115,17794,121,20794,129,30531,130,62677,131 v255 52.1338 / 6.71252 90 ttn.v2 - -119 -9.8 867.1MHz, SF9BW125, 4/5CR
2020-10-04 07:51:56 10°C 99.4375% 3.36V 10803,12,16187,112,17812,120,20494,129,29836,130,58462,131 v255 52.1338 / 6.71252 86 ttn.v2 - -120 -9.8 867.7MHz, SF9BW125, 4/5CR
2020-10-04 06:48:00 10°C 103.125% 3.36V 10822,12,16210,111,17726,119,20314,129,29504,130,52773,131 v255 52.1338 / 6.71252 82 ttn.v2 - -119 -8.2 867.3MHz, SF9BW125, 4/5CR
- -119 -12 867.3MHz, SF9BW125, 4/5CR
2020-10-04 06:32:02 10.0625°C 104.625% 3.36V 10823,12,16208,111,17701,119,20265,129,29389,130,53357,131 v255 52.1338 / 6.71252 81 ttn.v2 - -112 -11.8 868.5MHz, SF9BW125, 4/5CR
2020-10-04 05:44:05 9.875°C 102.25% 3.36V 10842,12,16206,110,17602,119,20149,129,29011,130,56318,131 v255 52.1338 / 6.71252 78 ttn.v2 - -120 -10.8 867.9MHz, SF9BW125, 4/5CR
2020-10-04 05:28:06 9.75°C 99% 3.35V 10828,12,16202,110,17666,119,20088,129,28984,130,55187,131 v255 52.1338 / 6.71252 77 ttn.v2 - -118 -9.5 868.1MHz, SF9BW125, 4/5CR
2020-10-04 05:12:07 9.75°C 100.125% 3.36V 10827,12,16198,109,17645,119,20026,129,28866,131,52684,131 v255 52.1338 / 6.71252 76 ttn.v2 - -118 -11.5 867.7MHz, SF9BW125, 4/5CR
2020-10-04 04:40:09 9.625°C 101.25% 3.36V 10850,12,16202,108,17447,118,19868,129,28584,131,51529,131 v255 52.1338 / 6.71252 74 ttn.v2 - -120 -9.5 867.5MHz, SF9BW125, 4/5CR
2020-10-04 04:24:11 9.625°C 100.688% 3.36V 10847,12,16193,108,17452,118,19811,129,28505,131,51359,131 v255 52.1338 / 6.71252 73 ttn.v2 - -112 -9.2 868.3MHz, SF9BW125, 4/5CR
2020-10-04 04:08:12 9.4375°C 98.875% 3.36V 10858,12,16200,108,17467,119,19761,129,28414,131,51845,131 v255 52.1338 / 6.71252 72 ttn.v2 - -119 -11.8 867.3MHz, SF9BW125, 4/5CR
2020-10-04 03:36:14 9.5625°C 94.3125% 3.36V 10851,12,16188,109,17433,119,19648,129,28294,131,54232,131 v255 52.1338 / 6.71252 70 ttn.v2 - -120 -2.5 867.1MHz, SF9BW125, 4/5CR
2020-10-04 03:04:16 9.125°C 91.25% 3.36V 10856,12,16192,108,17227,118,19522,129,28124,131,51398,131 v255 52.1338 / 6.71252 68 ttn.v2 - -120 -9.5 867.9MHz, SF9BW125, 4/5CR
2020-10-04 02:32:19 8.75°C 91.9375% 3.36V 10868,12,16198,105,17083,118,19341,130,27602,131,48331,131 v255 52.1338 / 6.71252 66 ttn.v2 - -119 -6.5 867.7MHz, SF9BW125, 4/5CR
2020-10-04 02:00:21 8.8125°C 92.0625% 3.36V 10876,12,16184,107,16924,118,19281,130,27568,131,49456,131 v255 52.1338 / 6.71252 64 ttn.v2 - -113 -10 867.5MHz, SF9BW125, 4/5CR
2020-10-04 01:28:23 9°C 92.5% 3.36V 10877,12,16181,109,16902,119,19156,130,27516,131,50740,131 v255 52.1338 / 6.71252 62 ttn.v2 - -117 -12 867.3MHz, SF9BW125, 4/5CR
2020-10-04 00:56:26 8.5625°C 93.25% 3.36V 10894,12,16181,105,16796,118,18971,130,27022,131,46245,131 v255 52.1338 / 6.71252 60 ttn.v2 - -118 -9.5 867.1MHz, SF9BW125, 4/5CR
2020-10-04 00:40:27 8.875°C 93.4375% 3.36V 10909,12,16191,108,16837,119,18979,130,27063,131,47075,131 v255 52.1338 / 6.71252 59 ttn.v2 - -118 -10.2 868.1MHz, SF9BW125, 4/5CR

Message count: 200
Node count: 1

Messages per node

Number of messages in list aboveNodes
200

Statistics per gateway

GatewayNumber of messagesNumber of nodesNodes
1501
291 (0.6km)
271 (0.717km)
251 (0.791km)
251 (0.369km)
231 (0.261km)
221 (1.992km)
211
41 (1.576km)
31 (15.782km)
31 (31.407km)
21
11

Filter by dataset